sensor_id;sensor_type;location;lat;lon;timestamp;temperature;humidity
21487;DHT22;10905;50.822;4.336;2023-07-30T00:01:15;17.90;99.90
21487;DHT22;10905;50.822;4.336;2023-07-30T00:03:40;17.90;99.90
21487;DHT22;10905;50.822;4.336;2023-07-30T00:06:06;17.70;99.90
21487;DHT22;10905;50.822;4.336;2023-07-30T00:08:31;17.80;99.90
21487;DHT22;10905;50.822;4.336;2023-07-30T00:10:57;17.70;99.90
21487;DHT22;10905;50.822;4.336;2023-07-30T00:13:23;17.80;99.90
21487;DHT22;10905;50.822;4.336;2023-07-30T00:15:49;17.80;99.90
21487;DHT22;10905;50.822;4.336;2023-07-30T00:18:16;17.80;99.90
21487;DHT22;10905;50.822;4.336;2023-07-30T00:20:42;17.90;99.90
21487;DHT22;10905;50.822;4.336;2023-07-30T00:23:07;17.90;99.90
21487;DHT22;10905;50.822;4.336;2023-07-30T00:25:33;17.90;99.90
21487;DHT22;10905;50.822;4.336;2023-07-30T00:27:58;17.90;99.90
21487;DHT22;10905;50.822;4.336;2023-07-30T00:30:24;17.90;99.90
21487;DHT22;10905;50.822;4.336;2023-07-30T00:32:50;17.80;99.90
21487;DHT22;10905;50.822;4.336;2023-07-30T00:35:16;17.80;99.90
21487;DHT22;10905;50.822;4.336;2023-07-30T00:37:41;17.80;99.90
21487;DHT22;10905;50.822;4.336;2023-07-30T00:40:07;17.70;99.90
21487;DHT22;10905;50.822;4.336;2023-07-30T00:42:33;17.80;99.90
21487;DHT22;10905;50.822;4.336;2023-07-30T00:44:59;17.80;99.90
21487;DHT22;10905;50.822;4.336;2023-07-30T00:47:25;17.90;99.90
21487;DHT22;10905;50.822;4.336;2023-07-30T00:49:51;17.80;99.90
21487;DHT22;10905;50.822;4.336;2023-07-30T00:52:19;17.80;99.90
21487;DHT22;10905;50.822;4.336;2023-07-30T00:54:46;17.80;99.90
21487;DHT22;10905;50.822;4.336;2023-07-30T00:57:12;17.80;99.90
21487;DHT22;10905;50.822;4.336;2023-07-30T00:59:38;17.90;99.90
21487;DHT22;10905;50.822;4.336;2023-07-30T01:02:04;17.90;99.90
21487;DHT22;10905;50.822;4.336;2023-07-30T01:04:30;18.00;99.90
21487;DHT22;10905;50.822;4.336;2023-07-30T01:06:56;18.00;99.90
21487;DHT22;10905;50.822;4.336;2023-07-30T01:09:22;18.00;99.90
21487;DHT22;10905;50.822;4.336;2023-07-30T01:11:48;18.00;99.90
21487;DHT22;10905;50.822;4.336;2023-07-30T01:14:14;18.00;99.90
21487;DHT22;10905;50.822;4.336;2023-07-30T01:16:41;18.00;99.90
21487;DHT22;10905;50.822;4.336;2023-07-30T01:19:06;18.00;99.90
21487;DHT22;10905;50.822;4.336;2023-07-30T01:21:36;18.00;99.90
21487;DHT22;10905;50.822;4.336;2023-07-30T01:24:03;18.10;99.90
21487;DHT22;10905;50.822;4.336;2023-07-30T01:26:43;18.10;99.90
21487;DHT22;10905;50.822;4.336;2023-07-30T01:29:21;18.20;99.90
21487;DHT22;10905;50.822;4.336;2023-07-30T01:31:57;18.20;99.90
21487;DHT22;10905;50.822;4.336;2023-07-30T01:34:27;18.10;99.90
21487;DHT22;10905;50.822;4.336;2023-07-30T01:36:54;18.10;99.90
21487;DHT22;10905;50.822;4.336;2023-07-30T01:39:20;18.20;99.90
21487;DHT22;10905;50.822;4.336;2023-07-30T01:41:46;18.20;99.90
21487;DHT22;10905;50.822;4.336;2023-07-30T01:44:12;18.10;99.90
21487;DHT22;10905;50.822;4.336;2023-07-30T01:46:37;18.20;99.90
21487;DHT22;10905;50.822;4.336;2023-07-30T01:49:03;18.20;99.90
21487;DHT22;10905;50.822;4.336;2023-07-30T01:51:29;18.10;99.90
21487;DHT22;10905;50.822;4.336;2023-07-30T01:53:54;18.20;99.90
21487;DHT22;10905;50.822;4.336;2023-07-30T01:56:20;18.30;99.90
21487;DHT22;10905;50.822;4.336;2023-07-30T01:58:45;18.30;99.90
21487;DHT22;10905;50.822;4.336;2023-07-30T02:01:11;18.30;99.90
21487;DHT22;10905;50.822;4.336;2023-07-30T02:03:37;18.30;99.90
21487;DHT22;10905;50.822;4.336;2023-07-30T02:06:03;18.20;99.90
21487;DHT22;10905;50.822;4.336;2023-07-30T02:08:28;18.10;99.90
21487;DHT22;10905;50.822;4.336;2023-07-30T02:10:58;18.20;99.90
21487;DHT22;10905;50.822;4.336;2023-07-30T02:13:24;18.10;99.90
21487;DHT22;10905;50.822;4.336;2023-07-30T02:15:50;18.10;99.90
21487;DHT22;10905;50.822;4.336;2023-07-30T02:18:15;18.00;99.90
21487;DHT22;10905;50.822;4.336;2023-07-30T02:20:41;18.00;99.90
21487;DHT22;10905;50.822;4.336;2023-07-30T02:23:07;18.10;99.90
21487;DHT22;10905;50.822;4.336;2023-07-30T02:25:33;18.20;99.90
21487;DHT22;10905;50.822;4.336;2023-07-30T02:28:00;18.10;99.90
21487;DHT22;10905;50.822;4.336;2023-07-30T02:30:29;18.20;99.90
21487;DHT22;10905;50.822;4.336;2023-07-30T02:32:54;18.10;99.90
21487;DHT22;10905;50.822;4.336;2023-07-30T02:35:20;18.10;99.90
21487;DHT22;10905;50.822;4.336;2023-07-30T02:37:45;18.00;99.90
21487;DHT22;10905;50.822;4.336;2023-07-30T02:40:11;18.00;99.90
21487;DHT22;10905;50.822;4.336;2023-07-30T02:42:37;18.00;99.90
21487;DHT22;10905;50.822;4.336;2023-07-30T02:45:03;18.10;99.90
21487;DHT22;10905;50.822;4.336;2023-07-30T02:47:29;18.00;99.90
21487;DHT22;10905;50.822;4.336;2023-07-30T02:49:55;18.00;99.90
21487;DHT22;10905;50.822;4.336;2023-07-30T02:52:20;17.90;99.90
21487;DHT22;10905;50.822;4.336;2023-07-30T02:54:46;18.00;99.90
21487;DHT22;10905;50.822;4.336;2023-07-30T02:57:12;17.90;99.90
21487;DHT22;10905;50.822;4.336;2023-07-30T02:59:38;17.90;99.90
21487;DHT22;10905;50.822;4.336;2023-07-30T03:02:05;17.90;99.90
21487;DHT22;10905;50.822;4.336;2023-07-30T03:04:31;17.90;99.90
21487;DHT22;10905;50.822;4.336;2023-07-30T03:06:57;17.90;99.90
21487;DHT22;10905;50.822;4.336;2023-07-30T03:09:22;17.80;99.90
21487;DHT22;10905;50.822;4.336;2023-07-30T03:11:49;17.80;99.90
21487;DHT22;10905;50.822;4.336;2023-07-30T03:14:15;17.90;99.90
21487;DHT22;10905;50.822;4.336;2023-07-30T03:16:40;17.80;99.90
21487;DHT22;10905;50.822;4.336;2023-07-30T03:19:06;17.80;99.90
21487;DHT22;10905;50.822;4.336;2023-07-30T03:21:32;17.80;99.90
21487;DHT22;10905;50.822;4.336;2023-07-30T03:23:57;17.80;99.90
21487;DHT22;10905;50.822;4.336;2023-07-30T03:26:23;17.70;99.90
21487;DHT22;10905;50.822;4.336;2023-07-30T03:28:49;17.70;99.90
21487;DHT22;10905;50.822;4.336;2023-07-30T03:31:14;17.70;99.90
21487;DHT22;10905;50.822;4.336;2023-07-30T03:33:40;17.80;99.90
21487;DHT22;10905;50.822;4.336;2023-07-30T03:36:10;17.80;99.90
21487;DHT22;10905;50.822;4.336;2023-07-30T03:38:35;17.70;99.90
21487;DHT22;10905;50.822;4.336;2023-07-30T03:41:01;17.70;99.90
21487;DHT22;10905;50.822;4.336;2023-07-30T03:43:26;17.60;99.90
21487;DHT22;10905;50.822;4.336;2023-07-30T03:45:52;17.60;99.90
21487;DHT22;10905;50.822;4.336;2023-07-30T03:48:18;17.60;99.90
21487;DHT22;10905;50.822;4.336;2023-07-30T03:50:43;17.60;99.90
21487;DHT22;10905;50.822;4.336;2023-07-30T03:53:09;17.60;99.90
21487;DHT22;10905;50.822;4.336;2023-07-30T03:55:34;17.60;99.90
21487;DHT22;10905;50.822;4.336;2023-07-30T03:58:00;17.70;99.90
21487;DHT22;10905;50.822;4.336;2023-07-30T04:00:26;17.70;99.90
21487;DHT22;10905;50.822;4.336;2023-07-30T04:02:51;17.60;99.90
21487;DHT22;10905;50.822;4.336;2023-07-30T04:05:17;17.70;99.90
21487;DHT22;10905;50.822;4.336;2023-07-30T04:07:42;17.60;99.90
21487;DHT22;10905;50.822;4.336;2023-07-30T04:10:08;17.60;99.90
21487;DHT22;10905;50.822;4.336;2023-07-30T04:12:34;17.50;99.90
21487;DHT22;10905;50.822;4.336;2023-07-30T04:15:00;17.40;99.90
21487;DHT22;10905;50.822;4.336;2023-07-30T04:17:25;17.40;99.90
21487;DHT22;10905;50.822;4.336;2023-07-30T04:19:51;17.30;99.90
21487;DHT22;10905;50.822;4.336;2023-07-30T04:22:16;17.30;99.90
21487;DHT22;10905;50.822;4.336;2023-07-30T04:24:42;17.30;99.90
21487;DHT22;10905;50.822;4.336;2023-07-30T04:27:08;17.20;99.90
21487;DHT22;10905;50.822;4.336;2023-07-30T04:29:33;17.30;99.90
21487;DHT22;10905;50.822;4.336;2023-07-30T04:31:59;17.40;99.90
21487;DHT22;10905;50.822;4.336;2023-07-30T04:34:24;17.40;99.90
21487;DHT22;10905;50.822;4.336;2023-07-30T04:36:50;17.20;99.90
21487;DHT22;10905;50.822;4.336;2023-07-30T04:39:16;17.20;99.90
21487;DHT22;10905;50.822;4.336;2023-07-30T04:41:41;17.10;99.90
21487;DHT22;10905;50.822;4.336;2023-07-30T04:44:07;17.10;99.90
21487;DHT22;10905;50.822;4.336;2023-07-30T04:46:33;17.20;99.90
21487;DHT22;10905;50.822;4.336;2023-07-30T04:49:01;17.20;99.90
21487;DHT22;10905;50.822;4.336;2023-07-30T04:51:26;17.30;99.90
21487;DHT22;10905;50.822;4.336;2023-07-30T04:53:52;17.20;99.90
21487;DHT22;10905;50.822;4.336;2023-07-30T04:56:17;17.20;99.90
21487;DHT22;10905;50.822;4.336;2023-07-30T04:58:43;17.20;99.90
21487;DHT22;10905;50.822;4.336;2023-07-30T05:01:09;17.20;99.90
21487;DHT22;10905;50.822;4.336;2023-07-30T05:03:34;17.20;99.90
21487;DHT22;10905;50.822;4.336;2023-07-30T05:06:00;17.10;99.90
21487;DHT22;10905;50.822;4.336;2023-07-30T05:08:25;17.20;99.90
21487;DHT22;10905;50.822;4.336;2023-07-30T05:10:51;17.30;99.90
21487;DHT22;10905;50.822;4.336;2023-07-30T05:13:17;17.30;99.90
21487;DHT22;10905;50.822;4.336;2023-07-30T05:15:43;17.30;99.90
21487;DHT22;10905;50.822;4.336;2023-07-30T05:18:08;17.40;99.90
21487;DHT22;10905;50.822;4.336;2023-07-30T05:20:34;17.40;99.90
21487;DHT22;10905;50.822;4.336;2023-07-30T05:23:00;17.50;99.90
21487;DHT22;10905;50.822;4.336;2023-07-30T05:25:25;17.40;99.90
21487;DHT22;10905;50.822;4.336;2023-07-30T05:27:51;17.30;99.90
21487;DHT22;10905;50.822;4.336;2023-07-30T05:30:16;17.40;99.90
21487;DHT22;10905;50.822;4.336;2023-07-30T05:32:42;17.30;99.90
21487;DHT22;10905;50.822;4.336;2023-07-30T05:35:08;17.40;99.90
21487;DHT22;10905;50.822;4.336;2023-07-30T05:37:33;17.50;99.90
21487;DHT22;10905;50.822;4.336;2023-07-30T05:39:59;17.50;99.90
21487;DHT22;10905;50.822;4.336;2023-07-30T05:42:25;17.50;99.90
21487;DHT22;10905;50.822;4.336;2023-07-30T05:44:50;17.50;99.90
21487;DHT22;10905;50.822;4.336;2023-07-30T05:47:16;17.60;99.90
21487;DHT22;10905;50.822;4.336;2023-07-30T05:49:41;17.70;99.90
21487;DHT22;10905;50.822;4.336;2023-07-30T05:52:07;17.80;99.90
21487;DHT22;10905;50.822;4.336;2023-07-30T05:54:33;17.70;99.90
21487;DHT22;10905;50.822;4.336;2023-07-30T05:56:58;17.80;99.90
21487;DHT22;10905;50.822;4.336;2023-07-30T05:59:24;17.90;99.90
21487;DHT22;10905;50.822;4.336;2023-07-30T06:01:49;17.90;99.90
21487;DHT22;10905;50.822;4.336;2023-07-30T06:04:15;17.80;99.90
21487;DHT22;10905;50.822;4.336;2023-07-30T06:06:40;17.80;99.90
21487;DHT22;10905;50.822;4.336;2023-07-30T06:09:06;17.90;99.90
21487;DHT22;10905;50.822;4.336;2023-07-30T06:11:32;17.80;99.90
21487;DHT22;10905;50.822;4.336;2023-07-30T06:13:57;17.80;99.90
21487;DHT22;10905;50.822;4.336;2023-07-30T06:16:23;17.90;99.90
21487;DHT22;10905;50.822;4.336;2023-07-30T06:18:48;17.90;99.90
21487;DHT22;10905;50.822;4.336;2023-07-30T06:21:14;17.80;99.90
21487;DHT22;10905;50.822;4.336;2023-07-30T06:23:40;17.80;99.90
21487;DHT22;10905;50.822;4.336;2023-07-30T06:26:05;17.80;99.90
21487;DHT22;10905;50.822;4.336;2023-07-30T06:28:31;17.80;99.90
21487;DHT22;10905;50.822;4.336;2023-07-30T06:31:00;17.90;99.90
21487;DHT22;10905;50.822;4.336;2023-07-30T06:33:26;17.90;99.90
21487;DHT22;10905;50.822;4.336;2023-07-30T06:35:52;17.90;99.90
21487;DHT22;10905;50.822;4.336;2023-07-30T06:38:17;17.90;99.90
21487;DHT22;10905;50.822;4.336;2023-07-30T06:40:43;18.00;99.90
21487;DHT22;10905;50.822;4.336;2023-07-30T06:43:09;18.00;99.90
21487;DHT22;10905;50.822;4.336;2023-07-30T06:45:34;18.00;99.90
21487;DHT22;10905;50.822;4.336;2023-07-30T06:48:00;17.90;99.90
21487;DHT22;10905;50.822;4.336;2023-07-30T06:50:25;17.80;99.90
21487;DHT22;10905;50.822;4.336;2023-07-30T06:52:51;17.80;99.90
21487;DHT22;10905;50.822;4.336;2023-07-30T06:55:17;17.80;99.90
21487;DHT22;10905;50.822;4.336;2023-07-30T06:57:42;17.90;99.90
21487;DHT22;10905;50.822;4.336;2023-07-30T07:00:08;17.90;99.90
21487;DHT22;10905;50.822;4.336;2023-07-30T07:02:34;18.00;99.90
21487;DHT22;10905;50.822;4.336;2023-07-30T07:04:59;18.00;99.90
21487;DHT22;10905;50.822;4.336;2023-07-30T07:07:25;18.10;99.90
21487;DHT22;10905;50.822;4.336;2023-07-30T07:09:51;18.10;99.90
21487;DHT22;10905;50.822;4.336;2023-07-30T07:12:16;18.00;99.90
21487;DHT22;10905;50.822;4.336;2023-07-30T07:14:42;18.10;99.90
21487;DHT22;10905;50.822;4.336;2023-07-30T07:17:08;18.20;99.90
21487;DHT22;10905;50.822;4.336;2023-07-30T07:19:34;18.10;99.90
21487;DHT22;10905;50.822;4.336;2023-07-30T07:22:03;18.30;99.90
21487;DHT22;10905;50.822;4.336;2023-07-30T07:24:29;18.50;99.90
21487;DHT22;10905;50.822;4.336;2023-07-30T07:26:55;18.70;99.90
21487;DHT22;10905;50.822;4.336;2023-07-30T07:29:20;18.90;99.90
21487;DHT22;10905;50.822;4.336;2023-07-30T07:31:46;19.10;99.90
21487;DHT22;10905;50.822;4.336;2023-07-30T07:34:11;19.00;99.90
21487;DHT22;10905;50.822;4.336;2023-07-30T07:36:37;19.10;99.90
21487;DHT22;10905;50.822;4.336;2023-07-30T07:39:03;19.20;99.90
21487;DHT22;10905;50.822;4.336;2023-07-30T07:41:29;19.20;99.90
21487;DHT22;10905;50.822;4.336;2023-07-30T07:43:54;19.30;99.90
21487;DHT22;10905;50.822;4.336;2023-07-30T07:46:20;19.30;99.90
21487;DHT22;10905;50.822;4.336;2023-07-30T07:48:46;19.30;99.90
21487;DHT22;10905;50.822;4.336;2023-07-30T07:51:12;19.20;99.90
21487;DHT22;10905;50.822;4.336;2023-07-30T07:53:37;19.10;99.90
21487;DHT22;10905;50.822;4.336;2023-07-30T07:56:03;19.00;99.90
21487;DHT22;10905;50.822;4.336;2023-07-30T07:58:30;19.10;99.90
21487;DHT22;10905;50.822;4.336;2023-07-30T08:00:56;19.20;99.90
21487;DHT22;10905;50.822;4.336;2023-07-30T08:03:22;19.40;99.90
21487;DHT22;10905;50.822;4.336;2023-07-30T08:05:48;19.70;99.90
21487;DHT22;10905;50.822;4.336;2023-07-30T08:08:15;19.70;99.90
21487;DHT22;10905;50.822;4.336;2023-07-30T08:10:41;19.60;99.90
21487;DHT22;10905;50.822;4.336;2023-07-30T08:13:12;19.60;99.90
21487;DHT22;10905;50.822;4.336;2023-07-30T08:15:38;19.60;99.90
21487;DHT22;10905;50.822;4.336;2023-07-30T08:18:03;19.40;99.90
21487;DHT22;10905;50.822;4.336;2023-07-30T08:20:29;19.50;99.90
21487;DHT22;10905;50.822;4.336;2023-07-30T08:22:55;19.50;99.90
21487;DHT22;10905;50.822;4.336;2023-07-30T08:25:20;19.50;99.90
21487;DHT22;10905;50.822;4.336;2023-07-30T08:27:46;19.60;99.90
21487;DHT22;10905;50.822;4.336;2023-07-30T08:30:12;19.60;99.90
21487;DHT22;10905;50.822;4.336;2023-07-30T08:32:38;19.70;99.90
21487;DHT22;10905;50.822;4.336;2023-07-30T08:35:04;19.80;99.90
21487;DHT22;10905;50.822;4.336;2023-07-30T08:37:30;19.80;99.90
21487;DHT22;10905;50.822;4.336;2023-07-30T08:39:56;20.00;99.90
21487;DHT22;10905;50.822;4.336;2023-07-30T08:42:22;20.00;99.90
21487;DHT22;10905;50.822;4.336;2023-07-30T08:44:47;20.10;99.90
21487;DHT22;10905;50.822;4.336;2023-07-30T08:47:13;20.00;99.90
21487;DHT22;10905;50.822;4.336;2023-07-30T08:49:39;19.90;99.90
21487;DHT22;10905;50.822;4.336;2023-07-30T08:52:08;19.90;99.90
21487;DHT22;10905;50.822;4.336;2023-07-30T08:54:34;19.90;99.90
21487;DHT22;10905;50.822;4.336;2023-07-30T08:57:02;19.90;99.90
21487;DHT22;10905;50.822;4.336;2023-07-30T08:59:33;19.80;99.90
21487;DHT22;10905;50.822;4.336;2023-07-30T09:02:00;19.90;99.90
21487;DHT22;10905;50.822;4.336;2023-07-30T09:04:28;19.90;99.90
21487;DHT22;10905;50.822;4.336;2023-07-30T09:06:55;20.00;99.90
21487;DHT22;10905;50.822;4.336;2023-07-30T09:09:21;20.10;99.90
21487;DHT22;10905;50.822;4.336;2023-07-30T09:11:53;19.90;99.90
21487;DHT22;10905;50.822;4.336;2023-07-30T09:14:21;19.80;99.90
21487;DHT22;10905;50.822;4.336;2023-07-30T09:16:47;19.70;99.90
21487;DHT22;10905;50.822;4.336;2023-07-30T09:19:19;19.80;99.90
21487;DHT22;10905;50.822;4.336;2023-07-30T09:21:45;19.50;99.90
21487;DHT22;10905;50.822;4.336;2023-07-30T09:24:10;19.30;99.90
21487;DHT22;10905;50.822;4.336;2023-07-30T09:26:43;19.40;99.90
21487;DHT22;10905;50.822;4.336;2023-07-30T09:29:12;19.50;99.90
21487;DHT22;10905;50.822;4.336;2023-07-30T09:31:52;19.40;99.90
21487;DHT22;10905;50.822;4.336;2023-07-30T09:34:20;19.60;99.90
21487;DHT22;10905;50.822;4.336;2023-07-30T09:36:47;19.80;99.90
21487;DHT22;10905;50.822;4.336;2023-07-30T09:39:21;20.00;99.90
21487;DHT22;10905;50.822;4.336;2023-07-30T09:41:48;20.00;99.90
21487;DHT22;10905;50.822;4.336;2023-07-30T09:44:19;19.90;99.90
21487;DHT22;10905;50.822;4.336;2023-07-30T09:46:47;20.00;99.90
21487;DHT22;10905;50.822;4.336;2023-07-30T09:49:13;20.00;99.90
21487;DHT22;10905;50.822;4.336;2023-07-30T09:51:39;19.70;99.90
21487;DHT22;10905;50.822;4.336;2023-07-30T09:54:11;19.60;99.90
21487;DHT22;10905;50.822;4.336;2023-07-30T09:56:37;19.50;99.90
21487;DHT22;10905;50.822;4.336;2023-07-30T09:59:07;19.60;99.90
21487;DHT22;10905;50.822;4.336;2023-07-30T10:01:47;19.70;99.90
21487;DHT22;10905;50.822;4.336;2023-07-30T10:04:19;19.70;99.90
21487;DHT22;10905;50.822;4.336;2023-07-30T10:06:49;19.50;99.90
21487;DHT22;10905;50.822;4.336;2023-07-30T10:09:16;19.50;99.90
21487;DHT22;10905;50.822;4.336;2023-07-30T10:11:45;19.30;99.90
21487;DHT22;10905;50.822;4.336;2023-07-30T10:14:12;18.90;99.90
21487;DHT22;10905;50.822;4.336;2023-07-30T10:16:39;18.80;99.90
21487;DHT22;10905;50.822;4.336;2023-07-30T10:19:04;18.90;99.90
21487;DHT22;10905;50.822;4.336;2023-07-30T10:21:32;18.90;99.90
21487;DHT22;10905;50.822;4.336;2023-07-30T10:24:02;18.90;99.90
21487;DHT22;10905;50.822;4.336;2023-07-30T10:26:33;19.00;99.90
21487;DHT22;10905;50.822;4.336;2023-07-30T10:29:19;19.20;99.90
21487;DHT22;10905;50.822;4.336;2023-07-30T10:31:56;19.50;99.90
21487;DHT22;10905;50.822;4.336;2023-07-30T10:34:26;19.70;99.90
21487;DHT22;10905;50.822;4.336;2023-07-30T10:36:55;19.80;99.90
21487;DHT22;10905;50.822;4.336;2023-07-30T10:39:26;20.00;99.90
21487;DHT22;10905;50.822;4.336;2023-07-30T10:41:53;20.10;99.90
21487;DHT22;10905;50.822;4.336;2023-07-30T10:44:31;20.10;99.90
21487;DHT22;10905;50.822;4.336;2023-07-30T10:46:58;19.90;99.90
21487;DHT22;10905;50.822;4.336;2023-07-30T10:49:24;19.50;99.90
21487;DHT22;10905;50.822;4.336;2023-07-30T10:51:55;19.40;99.90
21487;DHT22;10905;50.822;4.336;2023-07-30T10:54:21;19.30;99.90
21487;DHT22;10905;50.822;4.336;2023-07-30T10:56:47;19.30;99.90
21487;DHT22;10905;50.822;4.336;2023-07-30T10:59:14;19.40;99.90
21487;DHT22;10905;50.822;4.336;2023-07-30T11:01:41;19.50;99.90
21487;DHT22;10905;50.822;4.336;2023-07-30T11:04:11;19.70;99.90
21487;DHT22;10905;50.822;4.336;2023-07-30T11:06:37;19.70;99.90
21487;DHT22;10905;50.822;4.336;2023-07-30T11:09:04;19.80;99.90
21487;DHT22;10905;50.822;4.336;2023-07-30T11:11:30;20.10;99.90
21487;DHT22;10905;50.822;4.336;2023-07-30T11:13:57;20.40;99.90
21487;DHT22;10905;50.822;4.336;2023-07-30T11:16:23;20.70;99.90
21487;DHT22;10905;50.822;4.336;2023-07-30T11:18:49;21.10;99.90
21487;DHT22;10905;50.822;4.336;2023-07-30T11:21:16;21.10;99.90
21487;DHT22;10905;50.822;4.336;2023-07-30T11:23:44;20.90;99.90
21487;DHT22;10905;50.822;4.336;2023-07-30T11:26:17;20.80;99.90
21487;DHT22;10905;50.822;4.336;2023-07-30T11:28:43;20.80;99.90
21487;DHT22;10905;50.822;4.336;2023-07-30T11:31:17;20.90;99.90
21487;DHT22;10905;50.822;4.336;2023-07-30T11:33:46;20.90;99.90
21487;DHT22;10905;50.822;4.336;2023-07-30T11:36:24;21.10;99.90
21487;DHT22;10905;50.822;4.336;2023-07-30T11:38:51;21.10;99.90
21487;DHT22;10905;50.822;4.336;2023-07-30T11:41:19;21.10;99.90
21487;DHT22;10905;50.822;4.336;2023-07-30T11:43:47;21.30;99.90
21487;DHT22;10905;50.822;4.336;2023-07-30T11:46:14;21.50;99.90
21487;DHT22;10905;50.822;4.336;2023-07-30T11:48:42;21.70;99.90
21487;DHT22;10905;50.822;4.336;2023-07-30T11:51:25;22.00;99.90
21487;DHT22;10905;50.822;4.336;2023-07-30T11:53:52;22.20;99.90
21487;DHT22;10905;50.822;4.336;2023-07-30T11:56:25;22.30;99.90
21487;DHT22;10905;50.822;4.336;2023-07-30T11:58:55;22.30;99.90
21487;DHT22;10905;50.822;4.336;2023-07-30T12:01:23;22.20;99.90
21487;DHT22;10905;50.822;4.336;2023-07-30T12:03:49;22.10;99.90
21487;DHT22;10905;50.822;4.336;2023-07-30T12:06:15;22.00;99.90
21487;DHT22;10905;50.822;4.336;2023-07-30T12:08:41;22.20;99.90
21487;DHT22;10905;50.822;4.336;2023-07-30T12:11:08;22.60;99.90
21487;DHT22;10905;50.822;4.336;2023-07-30T12:13:42;22.80;99.90
21487;DHT22;10905;50.822;4.336;2023-07-30T12:16:09;22.90;99.90
21487;DHT22;10905;50.822;4.336;2023-07-30T12:18:35;22.90;99.90
21487;DHT22;10905;50.822;4.336;2023-07-30T12:21:00;22.80;99.90
21487;DHT22;10905;50.822;4.336;2023-07-30T12:23:26;22.50;99.90
21487;DHT22;10905;50.822;4.336;2023-07-30T12:25:51;22.50;99.90
21487;DHT22;10905;50.822;4.336;2023-07-30T12:28:18;22.30;99.90
21487;DHT22;10905;50.822;4.336;2023-07-30T12:30:44;22.40;99.90
21487;DHT22;10905;50.822;4.336;2023-07-30T12:33:09;22.10;99.90
21487;DHT22;10905;50.822;4.336;2023-07-30T12:35:35;22.10;99.90
21487;DHT22;10905;50.822;4.336;2023-07-30T12:38:01;22.20;99.90
21487;DHT22;10905;50.822;4.336;2023-07-30T12:40:26;22.10;99.90
21487;DHT22;10905;50.822;4.336;2023-07-30T12:42:55;22.10;99.90
21487;DHT22;10905;50.822;4.336;2023-07-30T12:45:20;22.20;99.90
21487;DHT22;10905;50.822;4.336;2023-07-30T12:47:46;22.30;99.90
21487;DHT22;10905;50.822;4.336;2023-07-30T12:50:12;22.50;99.90
21487;DHT22;10905;50.822;4.336;2023-07-30T12:52:38;22.70;99.90
21487;DHT22;10905;50.822;4.336;2023-07-30T12:55:04;22.90;99.90
21487;DHT22;10905;50.822;4.336;2023-07-30T12:57:30;23.00;99.90
21487;DHT22;10905;50.822;4.336;2023-07-30T12:59:56;23.00;99.90
21487;DHT22;10905;50.822;4.336;2023-07-30T13:02:21;22.90;99.90
21487;DHT22;10905;50.822;4.336;2023-07-30T13:04:47;22.90;99.90
21487;DHT22;10905;50.822;4.336;2023-07-30T13:07:12;22.90;99.90
21487;DHT22;10905;50.822;4.336;2023-07-30T13:09:38;23.10;99.90
21487;DHT22;10905;50.822;4.336;2023-07-30T13:12:04;23.00;99.90
21487;DHT22;10905;50.822;4.336;2023-07-30T13:14:30;23.00;99.90
21487;DHT22;10905;50.822;4.336;2023-07-30T13:16:55;22.80;99.90
21487;DHT22;10905;50.822;4.336;2023-07-30T13:19:21;22.80;99.90
21487;DHT22;10905;50.822;4.336;2023-07-30T13:21:46;23.10;99.90
21487;DHT22;10905;50.822;4.336;2023-07-30T13:24:12;23.20;99.90
21487;DHT22;10905;50.822;4.336;2023-07-30T13:26:37;23.10;99.90
21487;DHT22;10905;50.822;4.336;2023-07-30T13:29:04;23.00;99.90
21487;DHT22;10905;50.822;4.336;2023-07-30T13:31:30;23.00;99.90
21487;DHT22;10905;50.822;4.336;2023-07-30T13:33:56;23.00;99.90
21487;DHT22;10905;50.822;4.336;2023-07-30T13:36:21;23.00;99.90
21487;DHT22;10905;50.822;4.336;2023-07-30T13:38:47;23.20;99.90
21487;DHT22;10905;50.822;4.336;2023-07-30T13:41:13;23.30;99.90
21487;DHT22;10905;50.822;4.336;2023-07-30T13:43:38;23.30;99.90
21487;DHT22;10905;50.822;4.336;2023-07-30T13:46:04;23.40;99.90
21487;DHT22;10905;50.822;4.336;2023-07-30T13:48:30;23.50;99.90
21487;DHT22;10905;50.822;4.336;2023-07-30T13:50:55;23.60;99.90
21487;DHT22;10905;50.822;4.336;2023-07-30T13:53:21;23.50;99.90
21487;DHT22;10905;50.822;4.336;2023-07-30T13:55:47;23.40;99.90
21487;DHT22;10905;50.822;4.336;2023-07-30T13:58:12;23.30;99.90
21487;DHT22;10905;50.822;4.336;2023-07-30T14:00:41;23.20;99.90
21487;DHT22;10905;50.822;4.336;2023-07-30T14:03:07;23.10;99.90
21487;DHT22;10905;50.822;4.336;2023-07-30T14:05:32;23.10;99.90
21487;DHT22;10905;50.822;4.336;2023-07-30T14:07:58;23.20;99.90
21487;DHT22;10905;50.822;4.336;2023-07-30T14:10:24;23.20;99.90
21487;DHT22;10905;50.822;4.336;2023-07-30T14:12:50;23.20;99.90
21487;DHT22;10905;50.822;4.336;2023-07-30T14:15:16;23.30;99.90
21487;DHT22;10905;50.822;4.336;2023-07-30T14:17:42;23.40;99.90
21487;DHT22;10905;50.822;4.336;2023-07-30T14:20:08;23.30;99.90
21487;DHT22;10905;50.822;4.336;2023-07-30T14:22:34;23.00;99.90
21487;DHT22;10905;50.822;4.336;2023-07-30T14:25:01;22.90;99.90
21487;DHT22;10905;50.822;4.336;2023-07-30T14:27:27;23.00;99.90
21487;DHT22;10905;50.822;4.336;2023-07-30T14:29:52;23.00;99.90
21487;DHT22;10905;50.822;4.336;2023-07-30T14:32:19;23.20;99.90
21487;DHT22;10905;50.822;4.336;2023-07-30T14:34:45;23.20;99.90
21487;DHT22;10905;50.822;4.336;2023-07-30T14:37:11;23.30;99.90
21487;DHT22;10905;50.822;4.336;2023-07-30T14:39:37;23.30;99.90
21487;DHT22;10905;50.822;4.336;2023-07-30T14:42:03;23.10;99.90
21487;DHT22;10905;50.822;4.336;2023-07-30T14:44:28;23.00;99.90
21487;DHT22;10905;50.822;4.336;2023-07-30T14:46:54;22.90;99.90
21487;DHT22;10905;50.822;4.336;2023-07-30T14:49:22;22.80;99.90
21487;DHT22;10905;50.822;4.336;2023-07-30T14:51:47;22.80;99.90
21487;DHT22;10905;50.822;4.336;2023-07-30T14:54:13;22.70;99.90
21487;DHT22;10905;50.822;4.336;2023-07-30T14:56:39;22.50;99.90
21487;DHT22;10905;50.822;4.336;2023-07-30T14:59:04;22.50;99.90
21487;DHT22;10905;50.822;4.336;2023-07-30T15:01:30;22.50;99.90
21487;DHT22;10905;50.822;4.336;2023-07-30T15:03:56;22.40;99.90
21487;DHT22;10905;50.822;4.336;2023-07-30T15:06:24;22.30;99.90
21487;DHT22;10905;50.822;4.336;2023-07-30T15:08:49;22.30;99.90
21487;DHT22;10905;50.822;4.336;2023-07-30T15:11:15;22.30;99.90
21487;DHT22;10905;50.822;4.336;2023-07-30T15:13:41;22.10;99.90
21487;DHT22;10905;50.822;4.336;2023-07-30T15:16:06;22.00;99.90
21487;DHT22;10905;50.822;4.336;2023-07-30T15:18:32;22.00;99.90
21487;DHT22;10905;50.822;4.336;2023-07-30T15:20:58;21.90;99.90
21487;DHT22;10905;50.822;4.336;2023-07-30T15:23:24;21.80;99.90
21487;DHT22;10905;50.822;4.336;2023-07-30T15:25:50;21.70;99.90